Terminal Aerodrome Forecast
Issued by NWS

Home | Current Version | Previous Version | Text Only | Print | Product List | Glossary Off
Versions: 1 2 3 4 5 6 7 8 9 10 11 12 13 14 15 16 17 18

000
FTUS42 KMHX 291130
TAFISO
TAF
KISO 291130Z 2912/3012 02006KT 4SM BR OVC003
      TEMPO 2912/2913 1SM BR BKN001
     FM291400 01007KT P6SM SCT007 BKN015
     FM291700 36006KT P6SM SCT040
     FM300800 VRB04KT 4SM BR SCT007 BKN020
      AMD LTD TO CLD VIS AND WIND=

USA.gov is the U.S. government's official web portal to all federal, state and local government web resources and services.